createdAt,value
2018-06-19T00:00:46.479Z,31.90
2018-06-19T00:03:15.888Z,31.80
2018-06-19T00:05:45.298Z,31.80
2018-06-19T00:08:15.997Z,31.80
2018-06-19T00:10:46.258Z,31.90
2018-06-19T00:13:16.046Z,31.90
2018-06-19T00:15:45.387Z,31.90
2018-06-19T00:18:15.027Z,31.90
2018-06-19T00:20:44.373Z,32.00
2018-06-19T00:23:13.877Z,31.90
2018-06-19T00:25:43.462Z,31.90
2018-06-19T00:28:13.201Z,31.90
2018-06-19T00:30:42.639Z,31.90
2018-06-19T00:33:11.830Z,31.90
2018-06-19T00:35:41.274Z,31.80
2018-06-19T00:38:10.941Z,31.80
2018-06-19T00:40:40.269Z,31.80
2018-06-19T00:43:09.485Z,31.70
2018-06-19T00:45:38.971Z,31.70
2018-06-19T00:48:08.372Z,31.60
2018-06-19T00:50:37.719Z,31.70
2018-06-19T00:53:07.216Z,31.70
2018-06-19T00:55:37.452Z,31.60
2018-06-19T00:58:06.898Z,31.50
2018-06-19T01:00:36.200Z,31.50
2018-06-19T01:03:05.398Z,31.40
2018-06-19T01:05:36.056Z,31.40
2018-06-19T01:08:05.948Z,31.40
2018-06-19T01:10:35.508Z,31.40
2018-06-19T01:13:04.793Z,31.40
2018-06-19T01:15:35.407Z,31.40
2018-06-19T01:18:05.222Z,31.40
2018-06-19T01:20:35.177Z,31.40
2018-06-19T01:23:05.591Z,31.30
2018-06-19T01:25:34.843Z,31.20
2018-06-19T01:28:04.407Z,31.20
2018-06-19T01:30:33.691Z,31.10
2018-06-19T01:33:03.047Z,31.10
2018-06-19T01:35:32.626Z,31.00
2018-06-19T01:38:02.218Z,31.00
2018-06-19T01:40:32.638Z,30.90
2018-06-19T01:43:02.138Z,30.90
2018-06-19T01:45:32.597Z,30.90
2018-06-19T01:48:01.926Z,30.90
2018-06-19T01:50:31.655Z,30.90
2018-06-19T01:53:01.127Z,30.80
2018-06-19T01:55:30.629Z,30.80
2018-06-19T01:57:59.982Z,30.80
2018-06-19T02:00:30.352Z,30.70
2018-06-19T02:02:59.894Z,30.70
2018-06-19T02:05:33.096Z,30.60
2018-06-19T02:08:04.214Z,30.50
2018-06-19T02:10:33.785Z,30.50
2018-06-19T02:13:03.015Z,30.40
2018-06-19T02:15:33.205Z,30.30
2018-06-19T02:18:03.824Z,30.20
2018-06-19T02:20:33.356Z,30.10
2018-06-19T02:23:02.560Z,30.00
2018-06-19T02:25:31.915Z,29.90
2018-06-19T02:28:01.971Z,29.80
2018-06-19T02:30:31.756Z,29.70
2018-06-19T02:33:01.250Z,29.70
2018-06-19T02:35:31.787Z,29.60
2018-06-19T02:38:02.177Z,29.60
2018-06-19T02:40:32.414Z,29.40
2018-06-19T02:43:02.209Z,29.40
2018-06-19T02:45:49.593Z,29.30
2018-06-19T02:48:38.149Z,29.20
2018-06-19T02:51:10.428Z,29.10
2018-06-19T02:53:50.660Z,29.00
2018-06-19T02:56:22.851Z,28.90
2018-06-19T02:58:58.573Z,28.80
2018-06-19T03:01:30.123Z,28.70
2018-06-19T03:04:05.237Z,28.60
2018-06-19T03:06:37.130Z,28.60
2018-06-19T03:09:09.912Z,28.50
2018-06-19T03:11:42.256Z,28.40
2018-06-19T03:14:14.025Z,28.30
2018-06-19T03:16:46.146Z,28.00
2018-06-19T03:19:17.561Z,28.00
2018-06-19T03:21:50.903Z,27.90
2018-06-19T03:24:22.398Z,27.70
2018-06-19T03:26:54.801Z,27.60
2018-06-19T03:29:26.576Z,27.60
2018-06-19T03:31:57.929Z,27.40
2018-06-19T03:34:30.919Z,27.30
2018-06-19T03:37:02.948Z,27.20
2018-06-19T03:39:45.189Z,27.20
2018-06-19T03:42:20.945Z,27.00
2018-06-19T03:44:52.426Z,26.90
2018-06-19T03:47:24.763Z,26.80
2018-06-19T03:49:58.119Z,26.70
2018-06-19T03:52:29.678Z,26.60
2018-06-19T03:55:01.061Z,26.60
2018-06-19T03:57:32.374Z,26.50
2018-06-19T04:00:11.302Z,26.40
2018-06-19T04:02:44.081Z,26.30
2018-06-19T04:05:15.989Z,26.30
2018-06-19T04:07:47.402Z,26.20
2018-06-19T04:10:21.104Z,26.10
2018-06-19T04:12:53.767Z,25.80
2018-06-19T04:15:27.148Z,25.80
2018-06-19T04:17:58.635Z,25.80
2018-06-19T04:20:30.775Z,25.70
2018-06-19T04:23:01.970Z,25.50
2018-06-19T04:25:33.858Z,25.50
2018-06-19T04:28:08.920Z,25.40
2018-06-19T04:30:40.496Z,25.30
2018-06-19T04:33:15.365Z,25.30
2018-06-19T04:35:47.163Z,25.30
2018-06-19T04:38:19.311Z,25.20
2018-06-19T04:40:52.141Z,25.10
2018-06-19T04:43:24.370Z,25.00
2018-06-19T04:45:55.891Z,24.90
2018-06-19T04:48:28.193Z,24.80
2018-06-19T04:50:59.107Z,24.70
2018-06-19T04:53:29.187Z,24.70
2018-06-19T04:56:01.373Z,24.60
2018-06-19T04:58:36.377Z,24.60
2018-06-19T05:01:08.450Z,24.40
2018-06-19T05:03:39.976Z,24.40
2018-06-19T05:06:12.688Z,24.40
2018-06-19T05:08:43.776Z,24.40
2018-06-19T05:11:14.322Z,24.40
2018-06-19T05:13:47.674Z,24.30
2018-06-19T05:16:18.784Z,24.30
2018-06-19T05:18:50.210Z,24.20
2018-06-19T05:21:23.555Z,24.20
2018-06-19T05:23:54.088Z,24.20
2018-06-19T05:26:25.125Z,24.20
2018-06-19T05:28:55.760Z,24.20
2018-06-19T05:31:28.533Z,24.20
2018-06-19T05:34:00.951Z,24.20
2018-06-19T05:36:32.984Z,24.20
2018-06-19T05:39:06.933Z,24.20
2018-06-19T05:41:39.549Z,24.10
2018-06-19T05:44:10.412Z,24.10
2018-06-19T05:46:42.821Z,24.10
2018-06-19T05:49:15.985Z,24.00
2018-06-19T05:51:52.811Z,23.90
2018-06-19T05:54:24.086Z,23.80
2018-06-19T05:56:55.600Z,23.80
2018-06-19T05:59:27.115Z,23.70
2018-06-19T06:01:59.835Z,23.70
2018-06-19T06:04:29.878Z,23.70
2018-06-19T06:06:59.327Z,23.60
2018-06-19T06:09:29.535Z,23.60
2018-06-19T06:12:01.746Z,23.60
2018-06-19T06:14:32.522Z,23.60
2018-06-19T06:17:02.053Z,23.60
2018-06-19T06:19:31.793Z,23.60
2018-06-19T06:22:03.091Z,23.50
2018-06-19T06:24:32.394Z,23.50
2018-06-19T06:27:02.330Z,23.50
2018-06-19T06:29:33.001Z,23.50
2018-06-19T06:32:02.377Z,23.50
2018-06-19T06:34:33.049Z,23.40
2018-06-19T06:37:03.042Z,23.40
2018-06-19T06:39:32.484Z,23.40
2018-06-19T06:42:02.377Z,23.30
2018-06-19T06:44:32.108Z,23.30
2018-06-19T06:47:01.652Z,23.30
2018-06-19T06:49:31.335Z,23.40
2018-06-19T06:52:01.206Z,23.40
2018-06-19T06:54:31.612Z,23.40
2018-06-19T06:57:05.926Z,23.50
2018-06-19T06:59:35.823Z,23.40
2018-06-19T07:02:05.648Z,23.50
2018-06-19T07:04:37.199Z,23.40
2018-06-19T07:07:07.576Z,23.40
2018-06-19T07:09:37.139Z,23.40
2018-06-19T07:12:06.845Z,23.40
2018-06-19T07:14:37.217Z,23.30
2018-06-19T07:17:06.405Z,23.30
2018-06-19T07:19:36.756Z,23.30
2018-06-19T07:22:06.289Z,23.20
2018-06-19T07:24:35.884Z,23.10
2018-06-19T07:27:05.126Z,23.10
2018-06-19T07:29:34.852Z,23.10
2018-06-19T07:32:04.508Z,23.00
2018-06-19T07:34:34.065Z,23.00
2018-06-19T07:37:03.572Z,23.00
2018-06-19T07:39:32.831Z,23.10
2018-06-19T07:42:03.176Z,23.00
2018-06-19T07:44:32.619Z,23.00
2018-06-19T07:47:01.820Z,22.90
2018-06-19T07:49:31.376Z,22.80
2018-06-19T07:52:00.974Z,22.80
2018-06-19T07:54:30.566Z,22.70
2018-06-19T07:57:00.101Z,22.70
2018-06-19T07:59:30.288Z,22.80
2018-06-19T08:02:00.329Z,22.80
2018-06-19T08:04:31.477Z,22.70
2018-06-19T08:07:01.497Z,22.80
2018-06-19T08:09:32.708Z,22.80
2018-06-19T08:12:02.431Z,22.70
2018-06-19T08:14:31.795Z,22.70
2018-06-19T08:17:01.339Z,22.70
2018-06-19T08:19:31.908Z,22.60
2018-06-19T08:22:01.296Z,22.60
2018-06-19T08:24:31.207Z,22.50
2018-06-19T08:27:01.177Z,22.50
2018-06-19T08:29:30.403Z,22.40
2018-06-19T08:32:00.201Z,22.40
2018-06-19T08:34:29.651Z,22.30
2018-06-19T08:36:58.901Z,22.20
2018-06-19T08:39:28.380Z,22.20
2018-06-19T08:41:57.846Z,22.20
2018-06-19T08:44:27.268Z,22.10
2018-06-19T08:46:56.901Z,22.10
2018-06-19T08:49:27.298Z,22.00
2018-06-19T08:51:56.873Z,22.00
2018-06-19T08:54:26.816Z,22.00
2018-06-19T08:56:58.714Z,22.00
2018-06-19T08:59:28.841Z,21.90
2018-06-19T09:01:58.475Z,22.00
2018-06-19T09:04:28.861Z,21.90
2018-06-19T09:07:00.282Z,21.90
2018-06-19T09:09:31.167Z,22.10
2018-06-19T09:12:00.859Z,22.00
2018-06-19T09:14:30.908Z,22.00
2018-06-19T09:17:00.343Z,22.00
2018-06-19T09:19:29.913Z,22.00
2018-06-19T09:21:59.247Z,21.90
2018-06-19T09:24:30.333Z,21.90
2018-06-19T09:26:59.657Z,21.80
2018-06-19T09:29:28.922Z,21.80
2018-06-19T09:31:58.931Z,21.80
2018-06-19T09:34:28.408Z,21.70
2018-06-19T09:36:57.650Z,21.70
2018-06-19T09:39:28.380Z,21.70
2018-06-19T09:41:58.919Z,21.80
2018-06-19T09:44:28.429Z,21.70
2018-06-19T09:46:57.857Z,21.70
2018-06-19T09:49:29.496Z,21.60
2018-06-19T09:52:00.432Z,21.60
2018-06-19T09:54:29.862Z,21.60
2018-06-19T09:56:59.327Z,21.50
2018-06-19T09:59:28.713Z,21.50
2018-06-19T10:01:58.346Z,21.40
2018-06-19T10:04:28.314Z,21.40
2018-06-19T10:06:57.838Z,21.30
2018-06-19T10:09:27.540Z,21.30
2018-06-19T10:11:57.095Z,21.30
2018-06-19T10:14:26.942Z,21.30
2018-06-19T10:16:57.212Z,21.20
2018-06-19T10:19:27.389Z,21.20
2018-06-19T10:21:57.165Z,21.20
2018-06-19T10:24:26.849Z,21.10
2018-06-19T10:26:56.144Z,21.10
2018-06-19T10:29:25.532Z,21.10
2018-06-19T10:31:55.285Z,21.10
2018-06-19T10:34:25.027Z,21.10
2018-06-19T10:36:56.252Z,21.10
2018-06-19T10:39:25.776Z,21.10
2018-06-19T10:41:56.147Z,21.10
2018-06-19T10:44:25.673Z,21.00
2018-06-19T10:46:55.755Z,21.00
2018-06-19T10:49:25.232Z,21.00
2018-06-19T10:51:55.337Z,21.10
2018-06-19T10:54:24.910Z,21.10
2018-06-19T10:56:54.226Z,21.00
2018-06-19T10:59:23.402Z,21.00
2018-06-19T11:01:52.844Z,21.10
2018-06-19T11:04:23.329Z,21.10
2018-06-19T11:06:53.736Z,21.00
2018-06-19T11:09:23.200Z,21.00
2018-06-19T11:11:52.806Z,20.90
2018-06-19T11:14:22.020Z,20.90
2018-06-19T11:16:51.628Z,20.90
2018-06-19T11:19:21.123Z,20.90
2018-06-19T11:21:50.714Z,21.00
2018-06-19T11:24:20.115Z,21.00
2018-06-19T11:26:49.615Z,20.90
2018-06-19T11:29:19.098Z,20.90
2018-06-19T11:31:48.391Z,20.90
2018-06-19T11:34:17.826Z,20.90
2018-06-19T11:36:47.544Z,20.80
2018-06-19T11:39:16.977Z,20.90
2018-06-19T11:41:47.261Z,20.80
2018-06-19T11:44:17.079Z,20.80
2018-06-19T11:46:46.864Z,20.80
2018-06-19T11:49:16.162Z,20.80
2018-06-19T11:51:45.483Z,20.90
2018-06-19T11:54:15.594Z,20.90
2018-06-19T11:56:45.933Z,20.90
2018-06-19T11:59:15.554Z,20.80
2018-06-19T12:01:46.486Z,20.80
2018-06-19T12:04:16.020Z,20.90
2018-06-19T12:06:46.665Z,20.70
2018-06-19T12:09:16.155Z,20.70
2018-06-19T12:11:45.526Z,20.70
2018-06-19T12:14:14.901Z,20.70
2018-06-19T12:16:44.193Z,20.70
2018-06-19T12:19:13.692Z,20.70
2018-06-19T12:21:43.242Z,20.70
2018-06-19T12:24:12.395Z,20.70
2018-06-19T12:26:41.736Z,20.70
2018-06-19T12:29:12.215Z,20.70
2018-06-19T12:31:41.529Z,20.60
2018-06-19T12:34:11.063Z,20.60
2018-06-19T12:36:41.841Z,20.60
2018-06-19T12:39:11.094Z,20.50
2018-06-19T12:41:40.065Z,20.50
2018-06-19T12:44:09.460Z,20.50
2018-06-19T12:46:39.140Z,20.60
2018-06-19T12:49:09.166Z,20.60
2018-06-19T12:54:58.318Z,20.60
2018-06-19T12:57:28.803Z,20.70
2018-06-19T12:59:58.392Z,20.60
2018-06-19T13:02:28.114Z,20.70
2018-06-19T13:07:59.932Z,20.80
2018-06-19T13:10:29.724Z,20.80
2018-06-19T13:13:08.617Z,20.70
2018-06-19T13:15:38.853Z,20.80
2018-06-19T13:21:14.846Z,20.90
2018-06-19T13:23:44.385Z,20.90
2018-06-19T13:26:13.987Z,20.90
2018-06-19T13:28:45.161Z,20.80
2018-06-19T13:31:25.796Z,20.90
2018-06-19T13:33:56.566Z,21.00
2018-06-19T13:36:25.890Z,21.00
2018-06-19T13:38:55.422Z,21.00
2018-06-19T13:41:36.180Z,21.00
2018-06-19T13:47:23.339Z,21.00
2018-06-19T13:49:53.484Z,21.00
2018-06-19T13:52:24.025Z,20.90
2018-06-19T13:54:54.089Z,20.90
2018-06-19T13:57:35.680Z,21.00
2018-06-19T14:00:05.720Z,21.00
2018-06-19T14:02:35.020Z,21.00
2018-06-19T14:05:04.229Z,21.10
2018-06-19T14:07:35.381Z,21.20
2018-06-19T14:13:06.947Z,21.40
2018-06-19T14:15:36.348Z,21.30
2018-06-19T14:18:07.140Z,21.40
2018-06-19T14:20:37.492Z,21.40
2018-06-19T14:23:07.984Z,21.50
2018-06-19T14:25:38.080Z,21.60
2018-06-19T14:28:07.634Z,21.70
2018-06-19T14:30:37.672Z,21.70
2018-06-19T14:33:06.901Z,21.70
2018-06-19T14:35:36.487Z,21.80
2018-06-19T14:38:05.995Z,21.60
2018-06-19T14:40:36.299Z,21.50
2018-06-19T14:43:05.643Z,21.50
2018-06-19T14:45:35.341Z,21.60
2018-06-19T14:48:04.975Z,21.70
2018-06-19T14:50:34.786Z,21.70
2018-06-19T14:53:03.935Z,21.80
2018-06-19T14:55:33.935Z,21.80
2018-06-19T14:58:03.252Z,21.80
2018-06-19T15:00:32.906Z,21.80
2018-06-19T15:03:02.288Z,21.80
2018-06-19T15:05:31.903Z,21.90
2018-06-19T15:08:01.344Z,21.90
2018-06-19T15:10:30.323Z,21.90
2018-06-19T15:12:59.625Z,22.10
2018-06-19T15:15:28.977Z,22.30
2018-06-19T15:17:58.508Z,22.40
2018-06-19T15:20:28.799Z,22.50
2018-06-19T15:22:58.067Z,22.50
2018-06-19T15:25:27.210Z,22.50
2018-06-19T15:27:56.901Z,22.50
2018-06-19T15:30:26.995Z,22.50
2018-06-19T15:32:56.381Z,22.60
2018-06-19T15:35:25.664Z,22.60
2018-06-19T15:37:54.435Z,22.60
2018-06-19T15:40:24.762Z,22.80
2018-06-19T15:42:54.328Z,22.80
2018-06-19T15:45:23.702Z,22.90
2018-06-19T15:47:53.396Z,23.00
2018-06-19T15:50:23.264Z,23.10
2018-06-19T15:52:52.727Z,23.10
2018-06-19T15:55:23.160Z,23.00
2018-06-19T15:57:53.711Z,23.20
2018-06-19T16:00:23.480Z,23.20
2018-06-19T16:02:53.565Z,23.30
2018-06-19T16:05:23.002Z,23.40
2018-06-19T16:07:53.902Z,23.40
2018-06-19T16:10:24.687Z,23.50
2018-06-19T16:12:54.203Z,23.60
2018-06-19T16:15:23.316Z,23.70
2018-06-19T16:17:52.665Z,23.80
2018-06-19T16:20:22.378Z,23.90
2018-06-19T16:22:53.080Z,24.10
2018-06-19T16:25:23.835Z,24.00
2018-06-19T16:27:54.166Z,24.20
2018-06-19T16:30:23.715Z,24.30
2018-06-19T16:32:53.062Z,24.50
2018-06-19T16:35:22.443Z,24.40
2018-06-19T16:37:52.208Z,24.30
2018-06-19T16:40:21.520Z,24.30
2018-06-19T16:42:51.022Z,24.30
2018-06-19T16:45:20.562Z,24.60
2018-06-19T16:47:50.113Z,24.70
2018-06-19T16:50:19.793Z,24.80
2018-06-19T16:52:50.424Z,25.10
2018-06-19T16:55:20.548Z,25.10
2018-06-19T16:57:49.674Z,25.10
2018-06-19T17:00:18.967Z,24.90
2018-06-19T17:02:48.678Z,25.20
2018-06-19T17:05:18.059Z,25.40
2018-06-19T17:07:46.890Z,26.00
2018-06-19T17:10:16.143Z,26.70
2018-06-19T17:12:44.872Z,26.40
2018-06-19T17:15:13.533Z,26.50
2018-06-19T17:17:42.941Z,26.20
2018-06-19T17:20:12.483Z,26.20
2018-06-19T17:22:41.936Z,26.30
2018-06-19T17:25:11.509Z,26.20
2018-06-19T17:27:43.486Z,26.10
2018-06-19T17:30:13.961Z,26.70
2018-06-19T17:32:43.241Z,26.60
2018-06-19T17:35:12.777Z,27.10
2018-06-19T17:37:43.121Z,27.10
2018-06-19T17:40:12.727Z,27.50
2018-06-19T17:42:42.544Z,28.00
2018-06-19T17:45:12.282Z,27.60
2018-06-19T17:47:41.853Z,27.70
2018-06-19T17:50:11.497Z,27.70
2018-06-19T17:52:40.976Z,28.60
2018-06-19T17:55:10.607Z,31.60
2018-06-19T17:57:40.063Z,35.90
2018-06-19T18:00:09.813Z,39.20
2018-06-19T18:02:39.620Z,41.90
2018-06-19T18:05:09.116Z,44.20
2018-06-19T18:07:38.535Z,45.20
2018-06-19T18:10:07.840Z,45.60
2018-06-19T18:12:37.208Z,46.10
2018-06-19T18:15:06.540Z,45.80
2018-06-19T18:17:36.356Z,46.80
2018-06-19T18:20:05.580Z,47.60
2018-06-19T18:22:35.499Z,47.00
2018-06-19T18:25:05.229Z,47.80
2018-06-19T18:27:34.788Z,47.70
2018-06-19T18:30:03.637Z,46.30
2018-06-19T18:32:32.845Z,44.30
2018-06-19T18:35:02.380Z,40.60
2018-06-19T18:37:31.899Z,38.20
2018-06-19T18:40:01.163Z,36.80
2018-06-19T18:42:31.019Z,35.40
2018-06-19T18:45:00.932Z,34.10
2018-06-19T18:47:30.385Z,33.40
2018-06-19T18:49:59.906Z,33.30
2018-06-19T18:52:29.512Z,32.80
2018-06-19T18:54:59.168Z,32.80
2018-06-19T18:57:28.760Z,32.90
2018-06-19T18:59:59.661Z,32.40
2018-06-19T19:02:29.657Z,31.80
2018-06-19T19:05:00.681Z,31.80
2018-06-19T19:07:31.097Z,31.30
2018-06-19T19:10:01.420Z,31.10
2018-06-19T19:12:31.332Z,31.70
2018-06-19T19:15:04.512Z,31.90
2018-06-19T19:17:39.711Z,32.20
2018-06-19T19:20:09.314Z,32.20
2018-06-19T19:22:38.669Z,32.30
2018-06-19T19:25:09.260Z,32.10
2018-06-19T19:27:45.504Z,32.00
2018-06-19T19:30:14.881Z,32.20
2018-06-19T19:32:44.382Z,31.90
2018-06-19T19:35:14.061Z,31.90
2018-06-19T19:40:38.901Z,32.00
2018-06-19T19:43:08.372Z,32.10
2018-06-19T19:45:39.214Z,32.40
2018-06-19T19:48:24.096Z,32.40
2018-06-19T19:50:53.903Z,32.40
2018-06-19T19:53:24.561Z,32.20
2018-06-19T19:55:55.066Z,32.20
2018-06-19T19:58:41.633Z,32.10
2018-06-19T20:01:12.162Z,32.10
2018-06-19T20:03:42.972Z,31.90
2018-06-19T20:06:13.490Z,31.80
2018-06-19T20:08:44.624Z,31.80
2018-06-19T20:11:15.170Z,31.60
2018-06-19T20:13:44.697Z,31.40
2018-06-19T20:16:14.158Z,31.50
2018-06-19T20:18:43.646Z,31.50
2018-06-19T20:21:13.255Z,31.10
2018-06-19T20:23:42.946Z,31.10
2018-06-19T20:26:12.453Z,31.20
2018-06-19T20:28:43.518Z,31.20
2018-06-19T20:31:14.048Z,30.30
2018-06-19T20:33:44.571Z,29.90
2018-06-19T20:36:17.035Z,29.80
2018-06-19T20:38:46.399Z,30.00
2018-06-19T20:41:15.651Z,30.10
2018-06-19T20:43:45.459Z,30.00
2018-06-19T20:46:16.368Z,29.90
2018-06-19T20:48:46.075Z,29.90
2018-06-19T20:51:15.816Z,29.90
2018-06-19T20:53:46.147Z,29.60
2018-06-19T20:56:15.749Z,29.60
2018-06-19T20:58:45.128Z,29.30
2018-06-19T21:01:14.712Z,29.20
2018-06-19T21:03:44.212Z,29.10
2018-06-19T21:06:13.937Z,29.10
2018-06-19T21:08:44.429Z,28.90
2018-06-19T21:11:13.989Z,28.70
2018-06-19T21:13:44.036Z,28.50
2018-06-19T21:16:13.653Z,28.50
2018-06-19T21:18:43.299Z,28.60
2018-06-19T21:21:12.522Z,28.70
2018-06-19T21:23:42.381Z,28.60
2018-06-19T21:26:12.649Z,28.50
2018-06-19T21:28:42.558Z,28.40
2018-06-19T21:31:12.149Z,28.40
2018-06-19T21:33:41.340Z,28.60
2018-06-19T21:36:10.711Z,28.50
2018-06-19T21:38:42.464Z,28.60
2018-06-19T21:41:11.958Z,28.80
2018-06-19T21:43:43.048Z,28.90
2018-06-19T21:46:12.517Z,28.90
2018-06-19T21:48:42.277Z,28.80
2018-06-19T21:51:11.805Z,28.90
2018-06-19T21:53:42.683Z,28.80
2018-06-19T21:56:12.264Z,28.80
2018-06-19T21:58:41.805Z,28.70
2018-06-19T22:01:11.935Z,28.70
2018-06-19T22:03:41.820Z,28.60
2018-06-19T22:06:11.260Z,28.30
2018-06-19T22:08:42.552Z,28.30
2018-06-19T22:11:12.823Z,28.60
2018-06-19T22:13:42.182Z,28.60
2018-06-19T22:16:11.842Z,28.70
2018-06-19T22:18:41.440Z,28.80
2018-06-19T22:21:10.993Z,28.90
2018-06-19T22:23:40.474Z,28.90
2018-06-19T22:26:10.010Z,28.90
2018-06-19T22:28:39.609Z,28.70
2018-06-19T22:31:09.188Z,28.60
2018-06-19T22:33:39.692Z,28.70
2018-06-19T22:36:09.201Z,28.70
2018-06-19T22:38:39.155Z,28.60
2018-06-19T22:41:09.475Z,28.20
2018-06-19T22:43:39.091Z,28.20
2018-06-19T22:46:08.766Z,28.30
2018-06-19T22:48:38.542Z,28.30
2018-06-19T22:51:08.017Z,28.10
2018-06-19T22:53:37.471Z,28.10
2018-06-19T22:56:08.092Z,28.20
2018-06-19T22:58:37.838Z,28.30
2018-06-19T23:01:07.739Z,28.30
2018-06-19T23:03:37.318Z,28.30
2018-06-19T23:06:07.765Z,28.20
2018-06-19T23:08:37.282Z,28.20
2018-06-19T23:11:08.169Z,28.30
2018-06-19T23:13:37.893Z,28.30
2018-06-19T23:16:08.098Z,28.50
2018-06-19T23:18:38.509Z,28.60
2018-06-19T23:21:08.121Z,28.60
2018-06-19T23:23:37.690Z,28.70
2018-06-19T23:26:07.218Z,28.60
2018-06-19T23:28:37.090Z,28.50
2018-06-19T23:31:06.516Z,28.40
2018-06-19T23:33:35.915Z,28.30
2018-06-19T23:36:05.483Z,28.20
2018-06-19T23:38:35.173Z,28.20
2018-06-19T23:41:05.842Z,28.20
2018-06-19T23:43:36.226Z,28.20
2018-06-19T23:46:05.669Z,28.20
2018-06-19T23:48:35.510Z,28.30
2018-06-19T23:51:05.183Z,28.30
2018-06-19T23:53:35.763Z,28.20
2018-06-19T23:56:05.241Z,28.30
2018-06-19T23:58:34.672Z,28.40
